sensor_id;sensor_type;location;lat;lon;timestamp;pressure;altitude;pressure_sealevel;temperature;humidity
64402;BME280;50724;42.376;23.768;2023-04-01T00:02:30;92351.13;;;9.05;63.69
64402;BME280;50724;42.376;23.768;2023-04-01T00:05:31;92349.00;;;9.09;63.63
64402;BME280;50724;42.376;23.768;2023-04-01T00:08:31;92340.81;;;9.12;64.76
64402;BME280;50724;42.376;23.768;2023-04-01T00:11:32;92338.09;;;9.05;65.99
64402;BME280;50724;42.376;23.768;2023-04-01T00:14:32;92339.03;;;8.89;66.28
64402;BME280;50724;42.376;23.768;2023-04-01T00:17:33;92333.53;;;8.84;65.80
64402;BME280;50724;42.376;23.768;2023-04-01T00:20:34;92332.38;;;8.87;65.64
64402;BME280;50724;42.376;23.768;2023-04-01T00:23:35;92345.28;;;8.80;67.08
64402;BME280;50724;42.376;23.768;2023-04-01T00:26:35;92352.38;;;8.72;67.92
64402;BME280;50724;42.376;23.768;2023-04-01T00:29:36;92351.59;;;8.63;67.80
64402;BME280;50724;42.376;23.768;2023-04-01T00:32:36;92346.81;;;8.44;67.37
64402;BME280;50724;42.376;23.768;2023-04-01T00:35:37;92336.06;;;8.47;67.34
64402;BME280;50724;42.376;23.768;2023-04-01T00:38:38;92336.88;;;8.48;67.81
64402;BME280;50724;42.376;23.768;2023-04-01T00:41:39;92338.22;;;8.44;68.26
64402;BME280;50724;42.376;23.768;2023-04-01T00:44:40;92325.34;;;8.42;68.20
64402;BME280;50724;42.376;23.768;2023-04-01T00:47:41;92323.03;;;8.47;67.50
64402;BME280;50724;42.376;23.768;2023-04-01T00:50:44;92329.19;;;8.54;66.64
64402;BME280;50724;42.376;23.768;2023-04-01T00:53:48;92322.06;;;8.71;66.81
64402;BME280;50724;42.376;23.768;2023-04-01T00:57:06;92326.22;;;8.80;68.40
64402;BME280;50724;42.376;23.768;2023-04-01T01:00:10;92329.44;;;8.67;67.56
64402;BME280;50724;42.376;23.768;2023-04-01T01:03:11;92333.81;;;8.89;67.94
64402;BME280;50724;42.376;23.768;2023-04-01T01:12:17;92323.84;;;8.48;68.75
64402;BME280;50724;42.376;23.768;2023-04-01T01:18:53;92304.88;;;8.62;65.92
64402;BME280;50724;42.376;23.768;2023-04-01T01:22:17;92300.84;;;8.51;67.00
64402;BME280;50724;42.376;23.768;2023-04-01T01:38:24;92297.88;;;8.62;66.48
64402;BME280;50724;42.376;23.768;2023-04-01T01:41:27;92299.47;;;8.63;66.67
64402;BME280;50724;42.376;23.768;2023-04-01T01:44:33;92295.78;;;8.58;67.31
64402;BME280;50724;42.376;23.768;2023-04-01T01:47:35;92285.63;;;8.63;66.67
64402;BME280;50724;42.376;23.768;2023-04-01T01:50:37;92286.56;;;8.47;66.74
64402;BME280;50724;42.376;23.768;2023-04-01T01:53:38;92297.91;;;8.32;68.64
64402;BME280;50724;42.376;23.768;2023-04-01T01:56:39;92288.63;;;8.29;68.03
64402;BME280;50724;42.376;23.768;2023-04-01T01:59:43;92292.13;;;8.13;68.53
64402;BME280;50724;42.376;23.768;2023-04-01T02:02:46;92289.47;;;8.21;66.91
64402;BME280;50724;42.376;23.768;2023-04-01T02:05:50;92287.94;;;8.35;66.65
64402;BME280;50724;42.376;23.768;2023-04-01T02:08:55;92288.41;;;8.39;66.63
64402;BME280;50724;42.376;23.768;2023-04-01T02:11:59;92270.34;;;8.37;66.32
64402;BME280;50724;42.376;23.768;2023-04-01T02:15:06;92285.09;;;8.45;65.80
64402;BME280;50724;42.376;23.768;2023-04-01T02:18:10;92276.44;;;8.52;66.68
64402;BME280;50724;42.376;23.768;2023-04-01T02:21:12;92254.34;;;8.63;65.61
64402;BME280;50724;42.376;23.768;2023-04-01T02:24:14;92250.19;;;8.76;64.26
64402;BME280;50724;42.376;23.768;2023-04-01T02:27:16;92249.66;;;8.58;64.29
64402;BME280;50724;42.376;23.768;2023-04-01T02:30:17;92234.22;;;8.57;65.72
64402;BME280;50724;42.376;23.768;2023-04-01T02:33:19;92236.13;;;8.40;66.17
64402;BME280;50724;42.376;23.768;2023-04-01T02:36:20;92232.16;;;8.21;66.63
64402;BME280;50724;42.376;23.768;2023-04-01T02:39:21;92238.00;;;8.23;66.30
64402;BME280;50724;42.376;23.768;2023-04-01T02:42:21;92234.88;;;8.05;66.90
64402;BME280;50724;42.376;23.768;2023-04-01T02:45:22;92230.38;;;7.99;67.29
64402;BME280;50724;42.376;23.768;2023-04-01T02:48:22;92223.53;;;7.98;66.96
64402;BME280;50724;42.376;23.768;2023-04-01T02:51:32;92222.69;;;7.75;68.14
64402;BME280;50724;42.376;23.768;2023-04-01T02:54:32;92230.88;;;7.64;68.17
64402;BME280;50724;42.376;23.768;2023-04-01T02:57:33;92242.28;;;7.55;69.27
64402;BME280;50724;42.376;23.768;2023-04-01T03:00:33;92240.69;;;7.54;69.71
64402;BME280;50724;42.376;23.768;2023-04-01T03:03:34;92236.13;;;7.56;69.40
64402;BME280;50724;42.376;23.768;2023-04-01T03:06:34;92228.19;;;7.49;68.85
64402;BME280;50724;42.376;23.768;2023-04-01T03:09:36;92235.03;;;7.42;70.89
64402;BME280;50724;42.376;23.768;2023-04-01T03:12:37;92231.31;;;7.37;71.84
64402;BME280;50724;42.376;23.768;2023-04-01T03:15:37;92228.31;;;7.56;71.58
64402;BME280;50724;42.376;23.768;2023-04-01T03:18:38;92225.00;;;7.62;71.69
64402;BME280;50724;42.376;23.768;2023-04-01T03:21:38;92233.84;;;7.84;70.64
64402;BME280;50724;42.376;23.768;2023-04-01T03:24:38;92237.88;;;7.94;70.31
64402;BME280;50724;42.376;23.768;2023-04-01T03:27:39;92235.28;;;8.17;69.18
64402;BME280;50724;42.376;23.768;2023-04-01T03:30:39;92244.84;;;8.24;69.78
64402;BME280;50724;42.376;23.768;2023-04-01T03:33:40;92243.66;;;8.04;70.55
64402;BME280;50724;42.376;23.768;2023-04-01T03:36:40;92237.03;;;8.24;70.73
64402;BME280;50724;42.376;23.768;2023-04-01T03:39:41;92232.59;;;8.33;70.52
64402;BME280;50724;42.376;23.768;2023-04-01T03:42:41;92226.19;;;8.44;70.86
64402;BME280;50724;42.376;23.768;2023-04-01T03:45:49;92222.13;;;8.41;71.04
64402;BME280;50724;42.376;23.768;2023-04-01T03:48:50;92229.84;;;8.35;71.56
64402;BME280;50724;42.376;23.768;2023-04-01T03:51:50;92219.53;;;8.41;71.87
64402;BME280;50724;42.376;23.768;2023-04-01T03:54:51;92230.88;;;8.48;72.31
64402;BME280;50724;42.376;23.768;2023-04-01T03:57:51;92229.22;;;8.47;72.21
64402;BME280;50724;42.376;23.768;2023-04-01T04:00:52;92233.91;;;8.52;72.36
64402;BME280;50724;42.376;23.768;2023-04-01T04:03:52;92223.19;;;8.47;72.32
64402;BME280;50724;42.376;23.768;2023-04-01T04:06:53;92216.38;;;8.46;72.64
64402;BME280;50724;42.376;23.768;2023-04-01T04:09:53;92213.16;;;8.44;73.35
64402;BME280;50724;42.376;23.768;2023-04-01T04:12:54;92206.31;;;8.43;73.17
64402;BME280;50724;42.376;23.768;2023-04-01T04:15:55;92199.84;;;8.39;73.46
64402;BME280;50724;42.376;23.768;2023-04-01T04:18:55;92189.81;;;8.50;73.70
64402;BME280;50724;42.376;23.768;2023-04-01T04:21:56;92182.63;;;8.52;73.65
64402;BME280;50724;42.376;23.768;2023-04-01T04:24:56;92192.97;;;8.60;72.40
64402;BME280;50724;42.376;23.768;2023-04-01T04:27:58;92189.97;;;8.49;73.47
64402;BME280;50724;42.376;23.768;2023-04-01T04:30:59;92181.25;;;8.79;71.45
64402;BME280;50724;42.376;23.768;2023-04-01T04:34:00;92186.00;;;8.90;70.26
64402;BME280;50724;42.376;23.768;2023-04-01T04:37:01;92186.16;;;8.74;72.60
64402;BME280;50724;42.376;23.768;2023-04-01T04:40:11;92186.63;;;8.40;74.83
64402;BME280;50724;42.376;23.768;2023-04-01T04:43:13;92180.84;;;8.30;75.17
64402;BME280;50724;42.376;23.768;2023-04-01T04:46:14;92172.53;;;8.49;73.84
64402;BME280;50724;42.376;23.768;2023-04-01T04:49:14;92159.09;;;8.60;73.47
64402;BME280;50724;42.376;23.768;2023-04-01T04:52:15;92162.31;;;8.77;73.15
64402;BME280;50724;42.376;23.768;2023-04-01T04:55:15;92158.44;;;8.58;73.52
64402;BME280;50724;42.376;23.768;2023-04-01T04:58:17;92155.84;;;8.44;73.23
64402;BME280;50724;42.376;23.768;2023-04-01T05:01:18;92147.28;;;8.50;72.39
64402;BME280;50724;42.376;23.768;2023-04-01T05:04:18;92141.47;;;8.62;70.19
64402;BME280;50724;42.376;23.768;2023-04-01T05:07:19;92130.50;;;8.52;69.56
64402;BME280;50724;42.376;23.768;2023-04-01T05:10:19;92116.19;;;8.34;69.42
64402;BME280;50724;42.376;23.768;2023-04-01T05:13:21;92109.16;;;8.11;70.84
64402;BME280;50724;42.376;23.768;2023-04-01T05:16:21;92095.38;;;8.11;70.36
64402;BME280;50724;42.376;23.768;2023-04-01T05:19:24;92096.91;;;8.20;71.43
64402;BME280;50724;42.376;23.768;2023-04-01T05:22:25;92098.16;;;8.24;70.60
64402;BME280;50724;42.376;23.768;2023-04-01T05:25:25;92090.47;;;7.93;72.21
64402;BME280;50724;42.376;23.768;2023-04-01T05:28:26;92091.22;;;7.56;73.14
64402;BME280;50724;42.376;23.768;2023-04-01T05:31:26;92063.19;;;7.67;73.99
64402;BME280;50724;42.376;23.768;2023-04-01T05:34:27;92054.19;;;7.92;73.28
64402;BME280;50724;42.376;23.768;2023-04-01T05:37:27;92059.97;;;8.16;72.44
64402;BME280;50724;42.376;23.768;2023-04-01T05:40:28;92069.75;;;8.14;72.79
64402;BME280;50724;42.376;23.768;2023-04-01T05:43:29;92079.81;;;8.03;73.81
64402;BME280;50724;42.376;23.768;2023-04-01T05:46:31;92075.59;;;8.16;73.04
64402;BME280;50724;42.376;23.768;2023-04-01T05:49:33;92071.78;;;7.90;74.11
64402;BME280;50724;42.376;23.768;2023-04-01T05:52:33;92068.81;;;7.93;73.65
64402;BME280;50724;42.376;23.768;2023-04-01T05:55:35;92067.84;;;7.94;73.86
64402;BME280;50724;42.376;23.768;2023-04-01T05:58:36;92071.63;;;8.28;72.57
64402;BME280;50724;42.376;23.768;2023-04-01T06:01:37;92090.06;;;8.19;72.99
64402;BME280;50724;42.376;23.768;2023-04-01T06:04:39;92088.53;;;8.47;72.44
64402;BME280;50724;42.376;23.768;2023-04-01T06:07:40;92093.50;;;8.86;70.84
64402;BME280;50724;42.376;23.768;2023-04-01T06:21:07;92082.28;;;11.03;60.46
64402;BME280;50724;42.376;23.768;2023-04-01T06:38:34;92067.16;;;13.43;53.44
64402;BME280;50724;42.376;23.768;2023-04-01T06:54:24;92074.06;;;13.75;52.20
64402;BME280;50724;42.376;23.768;2023-04-01T06:57:35;92067.97;;;13.81;52.34
64402;BME280;50724;42.376;23.768;2023-04-01T07:00:43;92058.41;;;13.93;51.02
64402;BME280;50724;42.376;23.768;2023-04-01T07:03:49;92062.00;;;14.36;50.18
64402;BME280;50724;42.376;23.768;2023-04-01T07:10:16;92049.28;;;14.27;50.42
64402;BME280;50724;42.376;23.768;2023-04-01T07:13:42;92045.88;;;13.89;52.12
64402;BME280;50724;42.376;23.768;2023-04-01T07:16:54;92036.91;;;14.03;50.67
64402;BME280;50724;42.376;23.768;2023-04-01T07:20:03;92038.81;;;14.20;51.20
64402;BME280;50724;42.376;23.768;2023-04-01T07:23:16;92049.00;;;14.41;49.89
64402;BME280;50724;42.376;23.768;2023-04-01T07:26:23;92044.69;;;14.47;50.35
64402;BME280;50724;42.376;23.768;2023-04-01T07:29:25;92041.13;;;14.35;51.15
64402;BME280;50724;42.376;23.768;2023-04-01T07:35:33;92049.50;;;13.56;54.14
64402;BME280;50724;42.376;23.768;2023-04-01T07:52:49;92026.66;;;13.13;56.52
64402;BME280;50724;42.376;23.768;2023-04-01T07:56:06;92003.09;;;12.86;57.21
64402;BME280;50724;42.376;23.768;2023-04-01T08:06:07;91997.38;;;13.02;58.52
64402;BME280;50724;42.376;23.768;2023-04-01T08:09:31;92008.13;;;12.88;58.88
64402;BME280;50724;42.376;23.768;2023-04-01T08:22:17;91993.31;;;13.13;57.36
64402;BME280;50724;42.376;23.768;2023-04-01T08:25:24;91994.34;;;13.12;57.82
64402;BME280;50724;42.376;23.768;2023-04-01T08:28:39;91999.94;;;13.66;56.83
64402;BME280;50724;42.376;23.768;2023-04-01T08:35:08;91982.94;;;14.25;55.08
64402;BME280;50724;42.376;23.768;2023-04-01T08:38:17;91970.66;;;14.43;55.38
64402;BME280;50724;42.376;23.768;2023-04-01T08:55:30;91940.81;;;13.51;57.44
64402;BME280;50724;42.376;23.768;2023-04-01T08:58:54;91944.59;;;13.61;57.46
64402;BME280;50724;42.376;23.768;2023-04-01T09:25:45;91913.50;;;12.76;60.89
64402;BME280;50724;42.376;23.768;2023-04-01T09:35:47;91893.47;;;12.88;60.50
64402;BME280;50724;42.376;23.768;2023-04-01T09:38:59;91873.31;;;13.20;60.29
64402;BME280;50724;42.376;23.768;2023-04-01T09:48:46;91865.44;;;13.51;58.46
64402;BME280;50724;42.376;23.768;2023-04-01T09:55:26;91838.84;;;14.99;53.67
64402;BME280;50724;42.376;23.768;2023-04-01T10:09:46;91839.28;;;15.67;50.21
64402;BME280;50724;42.376;23.768;2023-04-01T10:13:23;91840.41;;;15.60;51.48
64402;BME280;50724;42.376;23.768;2023-04-01T10:20:15;91823.56;;;15.49;49.15
64402;BME280;50724;42.376;23.768;2023-04-01T10:30:35;91812.78;;;16.20;48.52
64402;BME280;50724;42.376;23.768;2023-04-01T11:07:14;91783.63;;;16.50;49.30
64402;BME280;50724;42.376;23.768;2023-04-01T11:20:04;91781.59;;;16.29;48.44
64402;BME280;50724;42.376;23.768;2023-04-01T11:33:19;91750.22;;;15.58;49.56
64402;BME280;50724;42.376;23.768;2023-04-01T11:55:19;91725.47;;;15.70;49.28
64402;BME280;50724;42.376;23.768;2023-04-01T12:01:16;91701.13;;;15.22;49.61
64402;BME280;50724;42.376;23.768;2023-04-01T12:04:37;91717.47;;;15.01;50.73
64402;BME280;50724;42.376;23.768;2023-04-01T12:07:53;91709.91;;;14.93;51.71
64402;BME280;50724;42.376;23.768;2023-04-01T12:11:17;91713.66;;;14.44;52.71
64402;BME280;50724;42.376;23.768;2023-04-01T12:17:49;91752.28;;;14.25;52.67
64402;BME280;50724;42.376;23.768;2023-04-01T12:20:57;91799.63;;;13.64;53.96
64402;BME280;50724;42.376;23.768;2023-04-01T12:24:41;91843.03;;;13.18;55.32
64402;BME280;50724;42.376;23.768;2023-04-01T12:28:05;91883.94;;;12.56;61.64
64402;BME280;50724;42.376;23.768;2023-04-01T12:37:49;91887.34;;;10.19;87.53
64402;BME280;50724;42.376;23.768;2023-04-01T12:48:36;91885.66;;;9.78;90.76
64402;BME280;50724;42.376;23.768;2023-04-01T13:02:00;91907.88;;;9.39;91.91
64402;BME280;50724;42.376;23.768;2023-04-01T13:11:54;91878.03;;;8.99;99.01
64402;BME280;50724;42.376;23.768;2023-04-01T13:25:00;91850.31;;;10.57;99.91
64402;BME280;50724;42.376;23.768;2023-04-01T13:28:21;91860.00;;;10.69;96.06
64402;BME280;50724;42.376;23.768;2023-04-01T13:31:38;91852.84;;;11.50;100.00
64402;BME280;50724;42.376;23.768;2023-04-01T13:48:42;91877.59;;;11.21;90.31
64402;BME280;50724;42.376;23.768;2023-04-01T13:52:16;91876.97;;;10.99;91.32
64402;BME280;50724;42.376;23.768;2023-04-01T13:59:02;91842.19;;;11.91;86.31
64402;BME280;50724;42.376;23.768;2023-04-01T14:02:25;91824.34;;;12.25;81.12
64402;BME280;50724;42.376;23.768;2023-04-01T14:05:50;91809.38;;;12.32;81.97
64402;BME280;50724;42.376;23.768;2023-04-01T14:09:30;91790.09;;;12.58;84.30
64402;BME280;50724;42.376;23.768;2023-04-01T14:12:58;91798.56;;;12.60;79.97
64402;BME280;50724;42.376;23.768;2023-04-01T14:19:19;91785.94;;;11.93;79.25
64402;BME280;50724;42.376;23.768;2023-04-01T14:49:39;91793.03;;;10.75;89.08
64402;BME280;50724;42.376;23.768;2023-04-01T14:52:54;91801.69;;;10.75;91.61
64402;BME280;50724;42.376;23.768;2023-04-01T14:55:58;91811.84;;;10.38;89.58
64402;BME280;50724;42.376;23.768;2023-04-01T14:58:59;91819.06;;;10.29;92.19
64402;BME280;50724;42.376;23.768;2023-04-01T15:02:28;91825.50;;;10.26;93.44
64402;BME280;50724;42.376;23.768;2023-04-01T15:12:57;91817.31;;;10.56;96.30
64402;BME280;50724;42.376;23.768;2023-04-01T15:16:13;91799.44;;;10.59;88.21
64402;BME280;50724;42.376;23.768;2023-04-01T15:33:10;91792.19;;;10.55;82.41
64402;BME280;50724;42.376;23.768;2023-04-01T15:36:35;91790.78;;;10.65;82.92
64402;BME280;50724;42.376;23.768;2023-04-01T15:49:42;91771.22;;;10.28;78.48
64402;BME280;50724;42.376;23.768;2023-04-01T16:06:56;91776.06;;;9.91;80.87
64402;BME280;50724;42.376;23.768;2023-04-01T16:17:01;91766.28;;;9.58;83.91
64402;BME280;50724;42.376;23.768;2023-04-01T16:20:20;91777.88;;;9.22;85.30
64402;BME280;50724;42.376;23.768;2023-04-01T16:23:40;91773.72;;;8.99;86.88
64402;BME280;50724;42.376;23.768;2023-04-01T16:27:09;91781.34;;;9.01;86.22
64402;BME280;50724;42.376;23.768;2023-04-01T16:37:20;91816.63;;;9.25;80.96
64402;BME280;50724;42.376;23.768;2023-04-01T16:40:50;91840.06;;;9.46;79.79
64402;BME280;50724;42.376;23.768;2023-04-01T16:44:19;91891.25;;;10.02;76.00
64402;BME280;50724;42.376;23.768;2023-04-01T16:47:47;91900.09;;;9.74;77.58
64402;BME280;50724;42.376;23.768;2023-04-01T16:54:06;91949.81;;;8.45;82.38
64402;BME280;50724;42.376;23.768;2023-04-01T16:57:25;91952.41;;;7.87;87.43
64402;BME280;50724;42.376;23.768;2023-04-01T17:03:36;91959.31;;;6.97;95.55
64402;BME280;50724;42.376;23.768;2023-04-01T17:13:12;91963.06;;;6.72;98.98
64402;BME280;50724;42.376;23.768;2023-04-01T17:26:25;92024.00;;;6.61;100.00
64402;BME280;50724;42.376;23.768;2023-04-01T17:38:56;92009.16;;;6.39;100.00
64402;BME280;50724;42.376;23.768;2023-04-01T17:42:47;92015.31;;;6.46;100.00
64402;BME280;50724;42.376;23.768;2023-04-01T17:45:55;92033.94;;;6.50;100.00
64402;BME280;50724;42.376;23.768;2023-04-01T17:55:40;92073.75;;;6.34;100.00
64402;BME280;50724;42.376;23.768;2023-04-01T17:58:46;92083.69;;;6.31;100.00
64402;BME280;50724;42.376;23.768;2023-04-01T18:08:14;92075.91;;;6.31;100.00
64402;BME280;50724;42.376;23.768;2023-04-01T18:11:34;92068.56;;;6.34;100.00
64402;BME280;50724;42.376;23.768;2023-04-01T18:14:58;92064.38;;;6.25;100.00
64402;BME280;50724;42.376;23.768;2023-04-01T18:21:50;92073.63;;;6.28;100.00
64402;BME280;50724;42.376;23.768;2023-04-01T18:25:05;92066.94;;;6.33;99.69
64402;BME280;50724;42.376;23.768;2023-04-01T18:31:33;92061.72;;;6.41;98.66
64402;BME280;50724;42.376;23.768;2023-04-01T18:35:02;92066.94;;;6.33;98.59
64402;BME280;50724;42.376;23.768;2023-04-01T18:38:15;92053.47;;;6.38;97.10
64402;BME280;50724;42.376;23.768;2023-04-01T18:41:25;92064.47;;;6.48;94.50
64402;BME280;50724;42.376;23.768;2023-04-01T18:50:57;92050.53;;;6.41;93.41
64402;BME280;50724;42.376;23.768;2023-04-01T18:54:11;92031.22;;;6.43;92.06
64402;BME280;50724;42.376;23.768;2023-04-01T18:57:16;92023.97;;;6.31;93.28
64402;BME280;50724;42.376;23.768;2023-04-01T19:00:25;92030.25;;;6.44;91.60
64402;BME280;50724;42.376;23.768;2023-04-01T19:06:40;92024.06;;;6.45;91.39
64402;BME280;50724;42.376;23.768;2023-04-01T19:09:47;92024.03;;;6.53;90.40
64402;BME280;50724;42.376;23.768;2023-04-01T19:36:24;92049.38;;;6.43;89.48
64402;BME280;50724;42.376;23.768;2023-04-01T19:42:57;92042.34;;;6.60;87.30
64402;BME280;50724;42.376;23.768;2023-04-01T19:49:55;92036.41;;;6.43;87.98
64402;BME280;50724;42.376;23.768;2023-04-01T19:53:28;92066.47;;;6.38;88.13
64402;BME280;50724;42.376;23.768;2023-04-01T19:56:33;92064.50;;;6.40;88.10
64402;BME280;50724;42.376;23.768;2023-04-01T19:59:56;92060.47;;;6.37;87.46
64402;BME280;50724;42.376;23.768;2023-04-01T20:16:16;92086.09;;;6.32;85.61
64402;BME280;50724;42.376;23.768;2023-04-01T20:26:07;92094.41;;;6.28;84.35
64402;BME280;50724;42.376;23.768;2023-04-01T20:42:53;92114.84;;;6.14;82.54
64402;BME280;50724;42.376;23.768;2023-04-01T20:52:42;92137.88;;;6.17;82.10
64402;BME280;50724;42.376;23.768;2023-04-01T21:02:51;92120.66;;;6.41;78.42
64402;BME280;50724;42.376;23.768;2023-04-01T21:16:35;92140.59;;;6.40;78.02
64402;BME280;50724;42.376;23.768;2023-04-01T21:19:42;92152.31;;;6.44;77.81
64402;BME280;50724;42.376;23.768;2023-04-01T21:35:55;92175.34;;;6.47;76.47
64402;BME280;50724;42.376;23.768;2023-04-01T21:42:26;92180.84;;;6.52;75.74
64402;BME280;50724;42.376;23.768;2023-04-01T22:09:39;92206.34;;;6.00;79.70
64402;BME280;50724;42.376;23.768;2023-04-01T22:23:07;92213.34;;;6.00;79.53
64402;BME280;50724;42.376;23.768;2023-04-01T22:36:54;92215.13;;;5.99;78.04
64402;BME280;50724;42.376;23.768;2023-04-01T22:43:39;92213.00;;;6.03;77.54
64402;BME280;50724;42.376;23.768;2023-04-01T22:46:56;92214.31;;;6.07;77.07
64402;BME280;50724;42.376;23.768;2023-04-01T22:50:05;92219.00;;;6.03;77.30
64402;BME280;50724;42.376;23.768;2023-04-01T22:56:53;92221.75;;;6.10;76.57
64402;BME280;50724;42.376;23.768;2023-04-01T22:59:54;92226.31;;;6.00;77.22
64402;BME280;50724;42.376;23.768;2023-04-01T23:06:06;92233.13;;;5.93;77.10
64402;BME280;50724;42.376;23.768;2023-04-01T23:09:38;92237.16;;;6.03;76.39
64402;BME280;50724;42.376;23.768;2023-04-01T23:12:40;92246.56;;;5.88;77.23
64402;BME280;50724;42.376;23.768;2023-04-01T23:15:41;92247.56;;;6.03;75.98
64402;BME280;50724;42.376;23.768;2023-04-01T23:21:48;92271.34;;;5.91;76.80
64402;BME280;50724;42.376;23.768;2023-04-01T23:31:45;92272.66;;;5.87;76.46
64402;BME280;50724;42.376;23.768;2023-04-01T23:34:55;92273.47;;;5.87;76.42
64402;BME280;50724;42.376;23.768;2023-04-01T23:37:57;92277.38;;;5.91;76.00
64402;BME280;50724;42.376;23.768;2023-04-01T23:40:59;92270.34;;;5.84;76.17
64402;BME280;50724;42.376;23.768;2023-04-01T23:44:08;92269.25;;;5.86;75.74
64402;BME280;50724;42.376;23.768;2023-04-01T23:47:14;92266.69;;;5.94;75.23
64402;BME280;50724;42.376;23.768;2023-04-01T23:50:27;92271.69;;;5.96;74.75
64402;BME280;50724;42.376;23.768;2023-04-01T23:53:31;92268.31;;;5.95;74.93
64402;BME280;50724;42.376;23.768;2023-04-01T23:56:44;92268.16;;;5.97;74.67
